createdAt,value
2023-02-27T00:03:21.361Z,78.9
2023-02-27T00:23:21.417Z,79.3
2023-02-27T00:43:21.384Z,78.4
2023-02-27T01:03:21.449Z,77.9
2023-02-27T01:23:21.538Z,76.3
2023-02-27T01:43:21.531Z,77.2
2023-02-27T02:03:21.663Z,77.5
2023-02-27T02:23:21.634Z,78.5
2023-02-27T02:43:21.759Z,80.3
2023-02-27T03:03:21.853Z,81.2
2023-02-27T03:23:21.915Z,81.9
2023-02-27T03:43:22.013Z,83.1
2023-02-27T04:03:22.166Z,83.9
2023-02-27T04:23:22.137Z,84.4
2023-02-27T04:43:22.245Z,84.2
2023-02-27T05:03:22.266Z,83.6
2023-02-27T05:23:22.287Z,83.4
2023-02-27T05:43:22.378Z,82.7
2023-02-27T06:03:22.373Z,81.4
2023-02-27T06:23:22.479Z,80.8
2023-02-27T06:43:22.402Z,79.4
2023-02-27T07:03:22.542Z,77.7
2023-02-27T07:23:22.654Z,75.7
2023-02-27T07:43:22.649Z,75.5
2023-02-27T08:03:22.751Z,74.4
2023-02-27T08:23:22.795Z,73.5
2023-02-27T08:43:22.832Z,71.5
2023-02-27T09:03:22.935Z,69.9
2023-02-27T09:23:22.996Z,67.2
2023-02-27T09:43:23.122Z,63.9
2023-02-27T10:03:23.062Z,60.1
2023-02-27T10:23:23.374Z,58.3
2023-02-27T10:43:23.205Z,57.7
2023-02-27T11:03:23.183Z,54.8
2023-02-27T11:23:23.282Z,49
2023-02-27T11:43:23.281Z,46.8
2023-02-27T12:03:23.282Z,45.8
2023-02-27T12:23:23.325Z,48.4
2023-02-27T12:43:23.384Z,50.6
2023-02-27T13:03:23.469Z,50.5
2023-02-27T13:23:23.474Z,48.8
2023-02-27T13:43:23.523Z,46.6
2023-02-27T14:03:23.579Z,42.3
2023-02-27T14:23:23.635Z,44
2023-02-27T14:43:23.606Z,48.9
2023-02-27T15:03:23.731Z,51.8
2023-02-27T15:23:23.817Z,55.1
2023-02-27T15:43:23.821Z,56.7
2023-02-27T16:03:23.859Z,57.5
2023-02-27T16:23:23.851Z,58.4
2023-02-27T16:43:24.415Z,59.4
2023-02-27T17:03:23.955Z,62.6
2023-02-27T17:23:24.021Z,64.7
2023-02-27T17:43:24.076Z,66
2023-02-27T18:03:24.198Z,67.6
2023-02-27T18:23:24.184Z,69.7
2023-02-27T18:43:24.445Z,71.3
2023-02-27T19:03:24.592Z,72
2023-02-27T19:23:24.592Z,73.2
2023-02-27T19:43:24.478Z,74.5
2023-02-27T20:03:24.643Z,75.6
2023-02-27T20:23:24.672Z,76.3
2023-02-27T20:43:24.572Z,76.4
2023-02-27T21:03:25.243Z,76.3
2023-02-27T21:23:24.754Z,76.8
2023-02-27T21:43:24.730Z,77.6
2023-02-27T22:03:24.784Z,77.1
2023-02-27T22:23:24.970Z,77.2
2023-02-27T22:43:25.051Z,77.8
2023-02-27T23:03:25.084Z,77.5
2023-02-27T23:23:25.078Z,77.4
2023-02-27T23:43:25.033Z,77.8
